sensor_id;sensor_type;location;lat;lon;timestamp;P1;durP1;ratioP1;P2;durP2;ratioP2
1460;SDS011;724;49.910;12.530;2023-03-23T00:01:25;15.18;;;14.38;;
1460;SDS011;724;49.910;12.530;2023-03-23T00:03:55;14.07;;;13.38;;
1460;SDS011;724;49.910;12.530;2023-03-23T00:06:23;14.82;;;14.02;;
1460;SDS011;724;49.910;12.530;2023-03-23T00:08:53;15.00;;;14.20;;
1460;SDS011;724;49.910;12.530;2023-03-23T00:11:25;15.20;;;14.40;;
1460;SDS011;724;49.910;12.530;2023-03-23T00:13:54;14.95;;;14.15;;
1460;SDS011;724;49.910;12.530;2023-03-23T00:16:23;14.65;;;13.93;;
1460;SDS011;724;49.910;12.530;2023-03-23T00:18:56;15.27;;;14.48;;
1460;SDS011;724;49.910;12.530;2023-03-23T00:21:24;15.80;;;15.00;;
1460;SDS011;724;49.910;12.530;2023-03-23T00:24:00;15.80;;;15.00;;
1460;SDS011;724;49.910;12.530;2023-03-23T00:26:28;15.40;;;14.60;;
1460;SDS011;724;49.910;12.530;2023-03-23T00:28:58;15.80;;;15.00;;
1460;SDS011;724;49.910;12.530;2023-03-23T00:31:26;15.50;;;14.70;;
1460;SDS011;724;49.910;12.530;2023-03-23T00:33:57;14.82;;;14.02;;
1460;SDS011;724;49.910;12.530;2023-03-23T00:36:26;15.70;;;14.90;;
1460;SDS011;724;49.910;12.530;2023-03-23T00:38:53;15.65;;;14.85;;
1460;SDS011;724;49.910;12.530;2023-03-23T00:41:24;15.60;;;14.80;;
1460;SDS011;724;49.910;12.530;2023-03-23T00:43:51;15.45;;;14.65;;
1460;SDS011;724;49.910;12.530;2023-03-23T00:46:18;15.20;;;14.40;;
1460;SDS011;724;49.910;12.530;2023-03-23T00:48:45;14.60;;;13.90;;
1460;SDS011;724;49.910;12.530;2023-03-23T00:51:12;14.80;;;14.00;;
1460;SDS011;724;49.910;12.530;2023-03-23T00:53:39;14.50;;;13.80;;
1460;SDS011;724;49.910;12.530;2023-03-23T00:56:07;14.90;;;14.10;;
1460;SDS011;724;49.910;12.530;2023-03-23T00:58:36;14.90;;;14.10;;
1460;SDS011;724;49.910;12.530;2023-03-23T01:01:03;14.40;;;13.70;;
1460;SDS011;724;49.910;12.530;2023-03-23T01:03:31;14.50;;;13.80;;
1460;SDS011;724;49.910;12.530;2023-03-23T01:06:02;14.38;;;13.68;;
1460;SDS011;724;49.910;12.530;2023-03-23T01:08:30;14.10;;;13.40;;
1460;SDS011;724;49.910;12.530;2023-03-23T01:11:01;14.60;;;13.90;;
1460;SDS011;724;49.910;12.530;2023-03-23T01:13:29;14.45;;;13.75;;
1460;SDS011;724;49.910;12.530;2023-03-23T01:15:58;13.90;;;13.20;;
1460;SDS011;724;49.910;12.530;2023-03-23T01:18:25;15.20;;;14.40;;
1460;SDS011;724;49.910;12.530;2023-03-23T01:20:51;15.10;;;14.30;;
1460;SDS011;724;49.910;12.530;2023-03-23T01:23:18;14.60;;;13.90;;
1460;SDS011;724;49.910;12.530;2023-03-23T01:25:45;14.90;;;14.10;;
1460;SDS011;724;49.910;12.530;2023-03-23T01:28:11;14.77;;;14.00;;
1460;SDS011;724;49.910;12.530;2023-03-23T01:30:38;14.70;;;13.95;;
1460;SDS011;724;49.910;12.530;2023-03-23T01:33:06;14.90;;;14.10;;
1460;SDS011;724;49.910;12.530;2023-03-23T01:35:36;14.90;;;14.10;;
1460;SDS011;724;49.910;12.530;2023-03-23T01:38:03;14.50;;;13.80;;
1460;SDS011;724;49.910;12.530;2023-03-23T01:40:31;14.50;;;13.80;;
1460;SDS011;724;49.910;12.530;2023-03-23T01:42:57;14.50;;;13.80;;
1460;SDS011;724;49.910;12.530;2023-03-23T01:45:25;14.80;;;14.00;;
1460;SDS011;724;49.910;12.530;2023-03-23T01:48:03;14.50;;;13.80;;
1460;SDS011;724;49.910;12.530;2023-03-23T01:50:36;14.50;;;13.80;;
1460;SDS011;724;49.910;12.530;2023-03-23T01:53:09;14.50;;;13.80;;
1460;SDS011;724;49.910;12.530;2023-03-23T01:55:38;14.85;;;14.05;;
1460;SDS011;724;49.910;12.530;2023-03-23T01:58:07;14.50;;;13.80;;
1460;SDS011;724;49.910;12.530;2023-03-23T02:00:35;14.70;;;13.95;;
1460;SDS011;724;49.910;12.530;2023-03-23T02:03:05;15.00;;;14.20;;
1460;SDS011;724;49.910;12.530;2023-03-23T02:05:37;14.38;;;13.68;;
1460;SDS011;724;49.910;12.530;2023-03-23T02:08:06;13.90;;;13.20;;
1460;SDS011;724;49.910;12.530;2023-03-23T02:10:35;15.43;;;14.63;;
1460;SDS011;724;49.910;12.530;2023-03-23T02:13:03;14.25;;;13.55;;
1460;SDS011;724;49.910;12.530;2023-03-23T02:15:33;14.60;;;13.90;;
1460;SDS011;724;49.910;12.530;2023-03-23T02:18:10;13.90;;;13.20;;
1460;SDS011;724;49.910;12.530;2023-03-23T02:20:50;14.90;;;14.10;;
1460;SDS011;724;49.910;12.530;2023-03-23T02:23:44;14.07;;;13.38;;
1460;SDS011;724;49.910;12.530;2023-03-23T02:26:33;14.40;;;13.70;;
1460;SDS011;724;49.910;12.530;2023-03-23T02:29:19;13.90;;;13.20;;
1460;SDS011;724;49.910;12.530;2023-03-23T02:32:16;14.10;;;13.40;;
1460;SDS011;724;49.910;12.530;2023-03-23T02:35:00;14.02;;;13.32;;
1460;SDS011;724;49.910;12.530;2023-03-23T02:37:32;14.80;;;14.00;;
1460;SDS011;724;49.910;12.530;2023-03-23T02:40:04;14.00;;;13.30;;
1460;SDS011;724;49.910;12.530;2023-03-23T02:42:36;14.48;;;13.77;;
1460;SDS011;724;49.910;12.530;2023-03-23T02:45:08;14.30;;;13.60;;
1460;SDS011;724;49.910;12.530;2023-03-23T02:47:37;14.40;;;13.70;;
1460;SDS011;724;49.910;12.530;2023-03-23T02:50:07;14.80;;;14.00;;
1460;SDS011;724;49.910;12.530;2023-03-23T02:52:37;14.90;;;14.10;;
1460;SDS011;724;49.910;12.530;2023-03-23T02:55:07;15.00;;;14.20;;
1460;SDS011;724;49.910;12.530;2023-03-23T02:57:36;15.32;;;14.52;;
1460;SDS011;724;49.910;12.530;2023-03-23T03:00:04;14.30;;;13.60;;
1460;SDS011;724;49.910;12.530;2023-03-23T03:02:35;14.20;;;13.50;;
1460;SDS011;724;49.910;12.530;2023-03-23T03:05:08;13.90;;;13.20;;
1460;SDS011;724;49.910;12.530;2023-03-23T03:07:46;13.70;;;13.00;;
1460;SDS011;724;49.910;12.530;2023-03-23T03:10:22;13.90;;;13.20;;
1460;SDS011;724;49.910;12.530;2023-03-23T03:12:55;14.80;;;14.00;;
1460;SDS011;724;49.910;12.530;2023-03-23T03:15:26;15.02;;;14.23;;
1460;SDS011;724;49.910;12.530;2023-03-23T03:17:58;14.05;;;13.35;;
1460;SDS011;724;49.910;12.530;2023-03-23T03:20:30;14.00;;;13.30;;
1460;SDS011;724;49.910;12.530;2023-03-23T03:22:58;14.30;;;13.60;;
1460;SDS011;724;49.910;12.530;2023-03-23T03:25:26;14.20;;;13.50;;
1460;SDS011;724;49.910;12.530;2023-03-23T03:27:54;14.00;;;13.30;;
1460;SDS011;724;49.910;12.530;2023-03-23T03:30:22;15.00;;;14.20;;
1460;SDS011;724;49.910;12.530;2023-03-23T03:32:54;14.90;;;14.10;;
1460;SDS011;724;49.910;12.530;2023-03-23T03:35:21;14.20;;;13.50;;
1460;SDS011;724;49.910;12.530;2023-03-23T03:37:49;14.00;;;13.30;;
1460;SDS011;724;49.910;12.530;2023-03-23T03:40:18;14.10;;;13.40;;
1460;SDS011;724;49.910;12.530;2023-03-23T03:42:47;14.90;;;14.10;;
1460;SDS011;724;49.910;12.530;2023-03-23T03:45:15;15.00;;;14.20;;
1460;SDS011;724;49.910;12.530;2023-03-23T03:47:44;15.10;;;14.30;;
1460;SDS011;724;49.910;12.530;2023-03-23T03:50:11;15.30;;;14.50;;
1460;SDS011;724;49.910;12.530;2023-03-23T03:52:38;14.85;;;14.05;;
1460;SDS011;724;49.910;12.530;2023-03-23T03:55:08;15.20;;;14.40;;
1460;SDS011;724;49.910;12.530;2023-03-23T03:57:35;15.23;;;14.43;;
1460;SDS011;724;49.910;12.530;2023-03-23T04:00:03;15.10;;;14.30;;
1460;SDS011;724;49.910;12.530;2023-03-23T04:02:39;15.30;;;14.50;;
1460;SDS011;724;49.910;12.530;2023-03-23T04:05:06;15.30;;;14.50;;
1460;SDS011;724;49.910;12.530;2023-03-23T04:07:34;15.00;;;14.20;;
1460;SDS011;724;49.910;12.530;2023-03-23T04:10:03;15.35;;;14.55;;
1460;SDS011;724;49.910;12.530;2023-03-23T04:12:33;15.90;;;15.10;;
1460;SDS011;724;49.910;12.530;2023-03-23T04:15:00;15.30;;;14.50;;
1460;SDS011;724;49.910;12.530;2023-03-23T04:17:27;15.10;;;14.30;;
1460;SDS011;724;49.910;12.530;2023-03-23T04:19:54;14.93;;;14.13;;
1460;SDS011;724;49.910;12.530;2023-03-23T04:22:22;14.80;;;14.00;;
1460;SDS011;724;49.910;12.530;2023-03-23T04:24:55;14.90;;;14.10;;
1460;SDS011;724;49.910;12.530;2023-03-23T04:27:25;15.00;;;14.20;;
1460;SDS011;724;49.910;12.530;2023-03-23T04:29:54;14.60;;;13.90;;
1460;SDS011;724;49.910;12.530;2023-03-23T04:32:23;15.20;;;14.40;;
1460;SDS011;724;49.910;12.530;2023-03-23T04:34:53;15.00;;;14.20;;
1460;SDS011;724;49.910;12.530;2023-03-23T04:37:20;14.80;;;14.00;;
1460;SDS011;724;49.910;12.530;2023-03-23T04:39:50;15.15;;;14.35;;
1460;SDS011;724;49.910;12.530;2023-03-23T04:42:25;14.80;;;14.00;;
1460;SDS011;724;49.910;12.530;2023-03-23T04:44:54;14.80;;;14.00;;
1460;SDS011;724;49.910;12.530;2023-03-23T04:47:21;15.40;;;14.60;;
1460;SDS011;724;49.910;12.530;2023-03-23T04:49:49;15.10;;;14.30;;
1460;SDS011;724;49.910;12.530;2023-03-23T04:52:16;15.55;;;14.75;;
1460;SDS011;724;49.910;12.530;2023-03-23T04:54:45;15.75;;;14.95;;
1460;SDS011;724;49.910;12.530;2023-03-23T04:57:12;15.70;;;14.90;;
1460;SDS011;724;49.910;12.530;2023-03-23T04:59:40;15.20;;;14.40;;
1460;SDS011;724;49.910;12.530;2023-03-23T05:02:08;15.05;;;14.25;;
1460;SDS011;724;49.910;12.530;2023-03-23T05:04:35;15.20;;;14.40;;
1460;SDS011;724;49.910;12.530;2023-03-23T05:07:02;14.20;;;13.50;;
1460;SDS011;724;49.910;12.530;2023-03-23T05:09:29;14.98;;;14.18;;
1460;SDS011;724;49.910;12.530;2023-03-23T05:11:56;14.80;;;14.00;;
1460;SDS011;724;49.910;12.530;2023-03-23T05:14:24;15.35;;;14.55;;
1460;SDS011;724;49.910;12.530;2023-03-23T05:16:51;15.15;;;14.35;;
1460;SDS011;724;49.910;12.530;2023-03-23T05:19:20;14.30;;;13.60;;
1460;SDS011;724;49.910;12.530;2023-03-23T05:21:47;14.60;;;13.90;;
1460;SDS011;724;49.910;12.530;2023-03-23T05:24:14;14.65;;;13.93;;
1460;SDS011;724;49.910;12.530;2023-03-23T05:26:40;14.30;;;13.60;;
1460;SDS011;724;49.910;12.530;2023-03-23T05:29:10;14.50;;;13.80;;
1460;SDS011;724;49.910;12.530;2023-03-23T05:31:40;14.65;;;13.93;;
1460;SDS011;724;49.910;12.530;2023-03-23T05:34:07;14.90;;;14.10;;
1460;SDS011;724;49.910;12.530;2023-03-23T05:36:35;14.57;;;13.88;;
1460;SDS011;724;49.910;12.530;2023-03-23T05:39:02;14.50;;;13.80;;
1460;SDS011;724;49.910;12.530;2023-03-23T05:41:29;15.20;;;14.40;;
1460;SDS011;724;49.910;12.530;2023-03-23T05:43:56;15.00;;;14.20;;
1460;SDS011;724;49.910;12.530;2023-03-23T05:46:23;14.60;;;13.90;;
1460;SDS011;724;49.910;12.530;2023-03-23T05:48:50;14.90;;;14.10;;
1460;SDS011;724;49.910;12.530;2023-03-23T05:51:17;14.95;;;14.15;;
1460;SDS011;724;49.910;12.530;2023-03-23T05:53:46;15.10;;;14.30;;
1460;SDS011;724;49.910;12.530;2023-03-23T05:56:13;15.15;;;14.35;;
1460;SDS011;724;49.910;12.530;2023-03-23T05:58:40;15.30;;;14.50;;
1460;SDS011;724;49.910;12.530;2023-03-23T06:01:07;15.60;;;14.80;;
1460;SDS011;724;49.910;12.530;2023-03-23T06:03:34;15.55;;;14.75;;
1460;SDS011;724;49.910;12.530;2023-03-23T06:06:01;15.60;;;14.80;;
1460;SDS011;724;49.910;12.530;2023-03-23T06:08:28;15.80;;;15.00;;
1460;SDS011;724;49.910;12.530;2023-03-23T06:10:57;16.00;;;15.20;;
1460;SDS011;724;49.910;12.530;2023-03-23T06:13:23;16.20;;;15.40;;
1460;SDS011;724;49.910;12.530;2023-03-23T06:15:54;16.30;;;15.50;;
1460;SDS011;724;49.910;12.530;2023-03-23T06:18:22;16.60;;;15.80;;
1460;SDS011;724;49.910;12.530;2023-03-23T06:20:49;16.60;;;15.80;;
1460;SDS011;724;49.910;12.530;2023-03-23T06:23:17;17.00;;;16.10;;
1460;SDS011;724;49.910;12.530;2023-03-23T06:25:44;16.20;;;15.40;;
1460;SDS011;724;49.910;12.530;2023-03-23T06:28:12;16.20;;;15.40;;
1460;SDS011;724;49.910;12.530;2023-03-23T06:30:40;16.70;;;15.90;;
1460;SDS011;724;49.910;12.530;2023-03-23T06:33:07;16.53;;;15.73;;
1460;SDS011;724;49.910;12.530;2023-03-23T06:35:34;16.70;;;15.90;;
1460;SDS011;724;49.910;12.530;2023-03-23T06:38:01;17.00;;;16.10;;
1460;SDS011;724;49.910;12.530;2023-03-23T06:40:29;16.70;;;15.90;;
1460;SDS011;724;49.910;12.530;2023-03-23T06:42:56;17.00;;;16.10;;
1460;SDS011;724;49.910;12.530;2023-03-23T06:45:25;16.70;;;15.90;;
1460;SDS011;724;49.910;12.530;2023-03-23T06:47:52;16.90;;;16.00;;
1460;SDS011;724;49.910;12.530;2023-03-23T06:50:18;16.57;;;15.77;;
1460;SDS011;724;49.910;12.530;2023-03-23T06:52:45;16.80;;;15.95;;
1460;SDS011;724;49.910;12.530;2023-03-23T06:55:12;16.85;;;15.98;;
1460;SDS011;724;49.910;12.530;2023-03-23T06:57:39;16.90;;;16.00;;
1460;SDS011;724;49.910;12.530;2023-03-23T07:00:07;17.10;;;16.20;;
1460;SDS011;724;49.910;12.530;2023-03-23T07:02:38;16.95;;;16.05;;
1460;SDS011;724;49.910;12.530;2023-03-23T07:05:05;16.53;;;15.73;;
1460;SDS011;724;49.910;12.530;2023-03-23T07:07:34;16.40;;;15.60;;
1460;SDS011;724;49.910;12.530;2023-03-23T07:10:01;16.90;;;16.00;;
1460;SDS011;724;49.910;12.530;2023-03-23T07:12:28;16.67;;;15.88;;
1460;SDS011;724;49.910;12.530;2023-03-23T07:14:54;16.77;;;15.93;;
1460;SDS011;724;49.910;12.530;2023-03-23T07:17:21;17.10;;;16.20;;
1460;SDS011;724;49.910;12.530;2023-03-23T07:19:50;16.77;;;15.93;;
1460;SDS011;724;49.910;12.530;2023-03-23T07:22:16;17.00;;;16.10;;
1460;SDS011;724;49.910;12.530;2023-03-23T07:24:43;16.63;;;15.83;;
1460;SDS011;724;49.910;12.530;2023-03-23T07:27:10;16.30;;;15.50;;
1460;SDS011;724;49.910;12.530;2023-03-23T07:29:37;16.30;;;15.50;;
1460;SDS011;724;49.910;12.530;2023-03-23T07:32:05;16.17;;;15.37;;
1460;SDS011;724;49.910;12.530;2023-03-23T07:34:32;16.30;;;15.50;;
1460;SDS011;724;49.910;12.530;2023-03-23T07:37:00;16.55;;;15.75;;
1460;SDS011;724;49.910;12.530;2023-03-23T07:39:27;16.75;;;15.93;;
1460;SDS011;724;49.910;12.530;2023-03-23T07:41:54;16.57;;;15.77;;
1460;SDS011;724;49.910;12.530;2023-03-23T07:44:21;17.00;;;16.10;;
1460;SDS011;724;49.910;12.530;2023-03-23T07:46:48;16.85;;;15.98;;
1460;SDS011;724;49.910;12.530;2023-03-23T07:49:15;16.30;;;15.50;;
1460;SDS011;724;49.910;12.530;2023-03-23T07:51:43;16.67;;;15.87;;
1460;SDS011;724;49.910;12.530;2023-03-23T07:54:11;16.90;;;16.00;;
1460;SDS011;724;49.910;12.530;2023-03-23T07:56:39;16.67;;;15.87;;
1460;SDS011;724;49.910;12.530;2023-03-23T07:59:06;16.37;;;15.57;;
1460;SDS011;724;49.910;12.530;2023-03-23T08:01:33;16.40;;;15.60;;
1460;SDS011;724;49.910;12.530;2023-03-23T08:04:00;16.37;;;15.57;;
1460;SDS011;724;49.910;12.530;2023-03-23T08:06:27;16.70;;;15.90;;
1460;SDS011;724;49.910;12.530;2023-03-23T08:08:54;16.30;;;15.50;;
1460;SDS011;724;49.910;12.530;2023-03-23T08:11:23;17.17;;;16.27;;
1460;SDS011;724;49.910;12.530;2023-03-23T08:13:49;16.50;;;15.70;;
1460;SDS011;724;49.910;12.530;2023-03-23T08:16:17;17.07;;;16.17;;
1460;SDS011;724;49.910;12.530;2023-03-23T08:18:44;16.90;;;16.00;;
1460;SDS011;724;49.910;12.530;2023-03-23T08:21:12;16.90;;;16.00;;
1460;SDS011;724;49.910;12.530;2023-03-23T08:23:39;17.10;;;16.20;;
1460;SDS011;724;49.910;12.530;2023-03-23T08:26:06;16.70;;;15.90;;
1460;SDS011;724;49.910;12.530;2023-03-23T08:28:35;16.93;;;16.03;;
1460;SDS011;724;49.910;12.530;2023-03-23T08:31:05;16.90;;;16.00;;
1460;SDS011;724;49.910;12.530;2023-03-23T08:33:33;16.40;;;15.60;;
1460;SDS011;724;49.910;12.530;2023-03-23T08:36:00;16.33;;;15.53;;
1460;SDS011;724;49.910;12.530;2023-03-23T08:38:28;16.37;;;15.57;;
1460;SDS011;724;49.910;12.530;2023-03-23T08:40:57;16.37;;;15.57;;
1460;SDS011;724;49.910;12.530;2023-03-23T08:43:24;16.40;;;15.60;;
1460;SDS011;724;49.910;12.530;2023-03-23T08:45:53;16.10;;;15.30;;
1460;SDS011;724;49.910;12.530;2023-03-23T08:48:21;16.40;;;15.60;;
1460;SDS011;724;49.910;12.530;2023-03-23T08:50:48;16.37;;;15.57;;
1460;SDS011;724;49.910;12.530;2023-03-23T08:53:17;16.63;;;15.83;;
1460;SDS011;724;49.910;12.530;2023-03-23T08:55:45;16.50;;;15.70;;
1460;SDS011;724;49.910;12.530;2023-03-23T08:58:12;16.70;;;15.90;;
1460;SDS011;724;49.910;12.530;2023-03-23T09:00:39;16.90;;;16.00;;
1460;SDS011;724;49.910;12.530;2023-03-23T09:03:07;16.67;;;15.87;;
1460;SDS011;724;49.910;12.530;2023-03-23T09:05:34;16.90;;;16.00;;
1460;SDS011;724;49.910;12.530;2023-03-23T09:08:02;16.50;;;15.70;;
1460;SDS011;724;49.910;12.530;2023-03-23T09:10:30;16.70;;;15.90;;
1460;SDS011;724;49.910;12.530;2023-03-23T09:12:56;16.90;;;16.00;;
1460;SDS011;724;49.910;12.530;2023-03-23T09:15:23;16.50;;;15.70;;
1460;SDS011;724;49.910;12.530;2023-03-23T09:17:51;16.23;;;15.43;;
1460;SDS011;724;49.910;12.530;2023-03-23T09:20:21;16.67;;;15.87;;
1460;SDS011;724;49.910;12.530;2023-03-23T09:22:50;16.10;;;15.30;;
1460;SDS011;724;49.910;12.530;2023-03-23T09:25:18;16.43;;;15.63;;
1460;SDS011;724;49.910;12.530;2023-03-23T09:27:48;17.00;;;16.10;;
1460;SDS011;724;49.910;12.530;2023-03-23T09:30:18;16.60;;;15.80;;
1460;SDS011;724;49.910;12.530;2023-03-23T09:32:45;16.70;;;15.90;;
1460;SDS011;724;49.910;12.530;2023-03-23T09:35:13;16.97;;;16.07;;
1460;SDS011;724;49.910;12.530;2023-03-23T09:37:43;17.10;;;16.20;;
1460;SDS011;724;49.910;12.530;2023-03-23T09:40:11;17.07;;;16.17;;
1460;SDS011;724;49.910;12.530;2023-03-23T09:42:44;17.17;;;16.27;;
1460;SDS011;724;49.910;12.530;2023-03-23T09:45:25;16.60;;;15.80;;
1460;SDS011;724;49.910;12.530;2023-03-23T09:48:02;16.20;;;15.40;;
1460;SDS011;724;49.910;12.530;2023-03-23T09:50:48;16.30;;;15.50;;
1460;SDS011;724;49.910;12.530;2023-03-23T09:53:20;16.03;;;15.23;;
1460;SDS011;724;49.910;12.530;2023-03-23T09:55:53;16.10;;;15.30;;
1460;SDS011;724;49.910;12.530;2023-03-23T09:58:21;15.97;;;15.17;;
1460;SDS011;724;49.910;12.530;2023-03-23T10:01:02;15.80;;;15.00;;
1460;SDS011;724;49.910;12.530;2023-03-23T10:03:34;15.70;;;14.90;;
1460;SDS011;724;49.910;12.530;2023-03-23T10:06:07;16.30;;;15.50;;
1460;SDS011;724;49.910;12.530;2023-03-23T10:08:36;16.37;;;15.57;;
1460;SDS011;724;49.910;12.530;2023-03-23T10:11:08;16.60;;;15.80;;
1460;SDS011;724;49.910;12.530;2023-03-23T10:13:48;16.40;;;15.60;;
1460;SDS011;724;49.910;12.530;2023-03-23T10:16:22;16.50;;;15.70;;
1460;SDS011;724;49.910;12.530;2023-03-23T10:18:54;16.90;;;16.00;;
1460;SDS011;724;49.910;12.530;2023-03-23T10:21:29;16.67;;;15.87;;
1460;SDS011;724;49.910;12.530;2023-03-23T10:23:59;16.77;;;15.93;;
1460;SDS011;724;49.910;12.530;2023-03-23T10:26:34;16.33;;;15.53;;
1460;SDS011;724;49.910;12.530;2023-03-23T10:29:16;16.10;;;15.30;;
1460;SDS011;724;49.910;12.530;2023-03-23T10:31:48;16.70;;;15.90;;
1460;SDS011;724;49.910;12.530;2023-03-23T10:34:20;16.27;;;15.47;;
1460;SDS011;724;49.910;12.530;2023-03-23T10:36:53;16.70;;;15.90;;
1460;SDS011;724;49.910;12.530;2023-03-23T10:39:27;16.13;;;15.33;;
1460;SDS011;724;49.910;12.530;2023-03-23T10:41:59;16.20;;;15.40;;
1460;SDS011;724;49.910;12.530;2023-03-23T10:44:32;16.30;;;15.50;;
1460;SDS011;724;49.910;12.530;2023-03-23T10:47:00;16.40;;;15.60;;
1460;SDS011;724;49.910;12.530;2023-03-23T10:49:30;16.20;;;15.40;;
1460;SDS011;724;49.910;12.530;2023-03-23T10:52:02;16.40;;;15.60;;
1460;SDS011;724;49.910;12.530;2023-03-23T10:54:38;16.50;;;15.70;;
1460;SDS011;724;49.910;12.530;2023-03-23T10:57:13;16.50;;;15.70;;
1460;SDS011;724;49.910;12.530;2023-03-23T10:59:48;16.37;;;15.57;;
1460;SDS011;724;49.910;12.530;2023-03-23T11:02:16;16.33;;;15.53;;
1460;SDS011;724;49.910;12.530;2023-03-23T11:04:54;16.00;;;15.20;;
1460;SDS011;724;49.910;12.530;2023-03-23T11:07:25;16.50;;;15.70;;
1460;SDS011;724;49.910;12.530;2023-03-23T11:09:56;15.60;;;14.80;;
1460;SDS011;724;49.910;12.530;2023-03-23T11:12:32;16.40;;;15.60;;
1460;SDS011;724;49.910;12.530;2023-03-23T11:15:03;16.27;;;15.47;;
1460;SDS011;724;49.910;12.530;2023-03-23T11:17:41;16.30;;;15.50;;
1460;SDS011;724;49.910;12.530;2023-03-23T11:20:11;16.20;;;15.40;;
1460;SDS011;724;49.910;12.530;2023-03-23T11:22:40;16.33;;;15.53;;
1460;SDS011;724;49.910;12.530;2023-03-23T11:25:12;16.00;;;15.20;;
1460;SDS011;724;49.910;12.530;2023-03-23T11:27:41;17.20;;;16.30;;
1460;SDS011;724;49.910;12.530;2023-03-23T11:30:09;16.60;;;15.80;;
1460;SDS011;724;49.910;12.530;2023-03-23T11:32:44;16.60;;;15.80;;
1460;SDS011;724;49.910;12.530;2023-03-23T11:35:15;16.10;;;15.30;;
1460;SDS011;724;49.910;12.530;2023-03-23T11:37:45;16.77;;;15.93;;
1460;SDS011;724;49.910;12.530;2023-03-23T11:40:17;17.00;;;16.10;;
1460;SDS011;724;49.910;12.530;2023-03-23T11:42:46;17.17;;;16.27;;
1460;SDS011;724;49.910;12.530;2023-03-23T11:45:16;16.97;;;16.07;;
1460;SDS011;724;49.910;12.530;2023-03-23T11:47:51;16.70;;;15.90;;
1460;SDS011;724;49.910;12.530;2023-03-23T11:50:24;16.50;;;15.70;;
1460;SDS011;724;49.910;12.530;2023-03-23T11:52:54;16.50;;;15.70;;
1460;SDS011;724;49.910;12.530;2023-03-23T11:55:31;16.60;;;15.80;;
1460;SDS011;724;49.910;12.530;2023-03-23T11:58:06;17.40;;;16.50;;
1460;SDS011;724;49.910;12.530;2023-03-23T12:00:37;16.93;;;16.03;;
1460;SDS011;724;49.910;12.530;2023-03-23T12:03:10;16.70;;;15.90;;
1460;SDS011;724;49.910;12.530;2023-03-23T12:05:43;16.90;;;16.00;;
1460;SDS011;724;49.910;12.530;2023-03-23T12:08:23;16.90;;;16.00;;
1460;SDS011;724;49.910;12.530;2023-03-23T12:11:01;16.50;;;15.70;;
1460;SDS011;724;49.910;12.530;2023-03-23T12:13:39;16.30;;;15.50;;
1460;SDS011;724;49.910;12.530;2023-03-23T12:16:22;16.00;;;15.20;;
1460;SDS011;724;49.910;12.530;2023-03-23T12:18:58;16.60;;;15.80;;
1460;SDS011;724;49.910;12.530;2023-03-23T12:21:32;16.20;;;15.40;;
1460;SDS011;724;49.910;12.530;2023-03-23T12:24:06;16.30;;;15.50;;
1460;SDS011;724;49.910;12.530;2023-03-23T12:26:45;16.17;;;15.37;;
1460;SDS011;724;49.910;12.530;2023-03-23T12:32:28;15.73;;;14.93;;
1460;SDS011;724;49.910;12.530;2023-03-23T12:35:07;15.80;;;15.00;;
1460;SDS011;724;49.910;12.530;2023-03-23T12:37:45;15.77;;;14.97;;
1460;SDS011;724;49.910;12.530;2023-03-23T12:40:22;16.20;;;15.40;;
1460;SDS011;724;49.910;12.530;2023-03-23T12:43:08;16.23;;;15.43;;
1460;SDS011;724;49.910;12.530;2023-03-23T12:45:55;15.80;;;15.00;;
1460;SDS011;724;49.910;12.530;2023-03-23T12:48:31;15.90;;;15.10;;
1460;SDS011;724;49.910;12.530;2023-03-23T12:51:11;15.70;;;14.90;;
1460;SDS011;724;49.910;12.530;2023-03-23T12:53:44;15.90;;;15.10;;
1460;SDS011;724;49.910;12.530;2023-03-23T12:56:19;15.70;;;14.90;;
1460;SDS011;724;49.910;12.530;2023-03-23T12:58:56;15.87;;;15.07;;
1460;SDS011;724;49.910;12.530;2023-03-23T13:01:30;15.80;;;15.00;;
1460;SDS011;724;49.910;12.530;2023-03-23T13:04:01;15.60;;;14.80;;
1460;SDS011;724;49.910;12.530;2023-03-23T13:06:34;15.60;;;14.80;;
1460;SDS011;724;49.910;12.530;2023-03-23T13:09:04;15.60;;;14.80;;
1460;SDS011;724;49.910;12.530;2023-03-23T13:11:37;15.40;;;14.60;;
1460;SDS011;724;49.910;12.530;2023-03-23T13:14:18;15.35;;;14.55;;
1460;SDS011;724;49.910;12.530;2023-03-23T13:16:58;15.20;;;14.40;;
1460;SDS011;724;49.910;12.530;2023-03-23T13:22:30;14.80;;;14.00;;
1460;SDS011;724;49.910;12.530;2023-03-23T13:25:05;14.80;;;14.00;;
1460;SDS011;724;49.910;12.530;2023-03-23T13:27:36;14.90;;;14.10;;
1460;SDS011;724;49.910;12.530;2023-03-23T13:30:05;14.90;;;14.10;;
1460;SDS011;724;49.910;12.530;2023-03-23T13:32:47;14.60;;;13.90;;
1460;SDS011;724;49.910;12.530;2023-03-23T13:35:16;14.93;;;14.13;;
1460;SDS011;724;49.910;12.530;2023-03-23T13:37:46;14.90;;;14.10;;
1460;SDS011;724;49.910;12.530;2023-03-23T13:40:18;14.53;;;13.83;;
1460;SDS011;724;49.910;12.530;2023-03-23T13:42:53;14.60;;;13.90;;
1460;SDS011;724;49.910;12.530;2023-03-23T13:45:24;14.60;;;13.90;;
1460;SDS011;724;49.910;12.530;2023-03-23T13:48:04;15.00;;;14.20;;
1460;SDS011;724;49.910;12.530;2023-03-23T13:50:42;14.90;;;14.10;;
1460;SDS011;724;49.910;12.530;2023-03-23T13:53:13;15.30;;;14.50;;
1460;SDS011;724;49.910;12.530;2023-03-23T13:55:41;15.30;;;14.50;;
1460;SDS011;724;49.910;12.530;2023-03-23T13:58:21;15.20;;;14.40;;
1460;SDS011;724;49.910;12.530;2023-03-23T14:01:01;15.40;;;14.60;;
1460;SDS011;724;49.910;12.530;2023-03-23T14:03:38;15.33;;;14.53;;
1460;SDS011;724;49.910;12.530;2023-03-23T14:06:07;15.00;;;14.20;;
1460;SDS011;724;49.910;12.530;2023-03-23T14:08:40;15.50;;;14.70;;
1460;SDS011;724;49.910;12.530;2023-03-23T14:11:13;15.20;;;14.40;;
1460;SDS011;724;49.910;12.530;2023-03-23T14:13:44;15.20;;;14.40;;
1460;SDS011;724;49.910;12.530;2023-03-23T14:16:15;15.10;;;14.30;;
1460;SDS011;724;49.910;12.530;2023-03-23T14:18:48;14.90;;;14.10;;
1460;SDS011;724;49.910;12.530;2023-03-23T14:21:21;15.27;;;14.47;;
1460;SDS011;724;49.910;12.530;2023-03-23T14:23:52;15.20;;;14.40;;
1460;SDS011;724;49.910;12.530;2023-03-23T14:26:20;14.80;;;14.00;;
1460;SDS011;724;49.910;12.530;2023-03-23T14:28:49;15.05;;;14.25;;
1460;SDS011;724;49.910;12.530;2023-03-23T14:31:19;15.17;;;14.37;;
1460;SDS011;724;49.910;12.530;2023-03-23T14:33:48;15.10;;;14.30;;
1460;SDS011;724;49.910;12.530;2023-03-23T14:36:18;15.10;;;14.30;;
1460;SDS011;724;49.910;12.530;2023-03-23T14:38:47;15.20;;;14.40;;
1460;SDS011;724;49.910;12.530;2023-03-23T14:41:14;15.20;;;14.40;;
1460;SDS011;724;49.910;12.530;2023-03-23T14:43:41;15.20;;;14.40;;
1460;SDS011;724;49.910;12.530;2023-03-23T14:46:08;15.00;;;14.20;;
1460;SDS011;724;49.910;12.530;2023-03-23T14:48:39;14.40;;;13.70;;
1460;SDS011;724;49.910;12.530;2023-03-23T14:51:06;14.80;;;14.00;;
1460;SDS011;724;49.910;12.530;2023-03-23T14:53:43;15.00;;;14.20;;
1460;SDS011;724;49.910;12.530;2023-03-23T14:56:11;14.60;;;13.90;;
1460;SDS011;724;49.910;12.530;2023-03-23T14:58:42;15.02;;;14.23;;
1460;SDS011;724;49.910;12.530;2023-03-23T15:01:10;14.87;;;14.07;;
1460;SDS011;724;49.910;12.530;2023-03-23T15:03:43;14.55;;;13.85;;
1460;SDS011;724;49.910;12.530;2023-03-23T15:06:18;14.85;;;14.05;;
1460;SDS011;724;49.910;12.530;2023-03-23T15:08:48;14.40;;;13.70;;
1460;SDS011;724;49.910;12.530;2023-03-23T15:11:23;14.30;;;13.60;;
1460;SDS011;724;49.910;12.530;2023-03-23T15:13:53;14.80;;;14.00;;